sensor_id;sensor_type;location;lat;lon;timestamp;temperature;humidity
15991;DHT22;8100;50.994;4.538;2022-09-09T00:00:33;14.30;99.90
15991;DHT22;8100;50.994;4.538;2022-09-09T00:03:26;14.40;99.90
15991;DHT22;8100;50.994;4.538;2022-09-09T00:06:19;14.30;99.90
15991;DHT22;8100;50.994;4.538;2022-09-09T00:09:12;13.90;99.90
15991;DHT22;8100;50.994;4.538;2022-09-09T00:12:03;13.90;99.90
15991;DHT22;8100;50.994;4.538;2022-09-09T00:14:55;13.10;99.90
15991;DHT22;8100;50.994;4.538;2022-09-09T00:17:47;14.10;99.90
15991;DHT22;8100;50.994;4.538;2022-09-09T00:20:44;14.20;99.90
15991;DHT22;8100;50.994;4.538;2022-09-09T00:23:35;13.20;99.90
15991;DHT22;8100;50.994;4.538;2022-09-09T00:26:30;14.10;99.90
15991;DHT22;8100;50.994;4.538;2022-09-09T00:29:28;13.80;99.90
15991;DHT22;8100;50.994;4.538;2022-09-09T00:32:19;13.60;99.90
15991;DHT22;8100;50.994;4.538;2022-09-09T00:35:16;13.20;99.90
15991;DHT22;8100;50.994;4.538;2022-09-09T00:38:12;13.90;99.90
15991;DHT22;8100;50.994;4.538;2022-09-09T00:41:05;13.20;99.90
15991;DHT22;8100;50.994;4.538;2022-09-09T00:44:00;14.50;99.90
15991;DHT22;8100;50.994;4.538;2022-09-09T00:46:56;13.40;99.90
15991;DHT22;8100;50.994;4.538;2022-09-09T00:49:57;13.40;99.90
15991;DHT22;8100;50.994;4.538;2022-09-09T00:52:56;14.50;99.90
15991;DHT22;8100;50.994;4.538;2022-09-09T00:55:49;14.40;99.90
15991;DHT22;8100;50.994;4.538;2022-09-09T00:58:38;14.20;99.90
15991;DHT22;8100;50.994;4.538;2022-09-09T01:01:26;13.90;99.90
15991;DHT22;8100;50.994;4.538;2022-09-09T01:04:18;13.60;99.90
15991;DHT22;8100;50.994;4.538;2022-09-09T01:07:13;14.40;99.90
15991;DHT22;8100;50.994;4.538;2022-09-09T01:10:07;13.20;99.90
15991;DHT22;8100;50.994;4.538;2022-09-09T01:13:00;14.50;99.90
15991;DHT22;8100;50.994;4.538;2022-09-09T01:15:51;13.90;99.90
15991;DHT22;8100;50.994;4.538;2022-09-09T01:18:44;13.90;99.90
15991;DHT22;8100;50.994;4.538;2022-09-09T01:21:37;13.40;99.90
15991;DHT22;8100;50.994;4.538;2022-09-09T01:24:30;13.40;99.90
15991;DHT22;8100;50.994;4.538;2022-09-09T01:27:23;14.00;99.90
15991;DHT22;8100;50.994;4.538;2022-09-09T01:30:13;13.20;99.90
15991;DHT22;8100;50.994;4.538;2022-09-09T01:33:01;14.00;99.90
15991;DHT22;8100;50.994;4.538;2022-09-09T01:35:52;13.70;99.90
15991;DHT22;8100;50.994;4.538;2022-09-09T01:38:42;14.00;99.90
15991;DHT22;8100;50.994;4.538;2022-09-09T01:41:29;14.00;99.90
15991;DHT22;8100;50.994;4.538;2022-09-09T01:44:19;13.20;99.90
15991;DHT22;8100;50.994;4.538;2022-09-09T01:47:07;13.20;99.90
15991;DHT22;8100;50.994;4.538;2022-09-09T01:49:54;14.20;99.90
15991;DHT22;8100;50.994;4.538;2022-09-09T01:52:42;13.20;99.90
15991;DHT22;8100;50.994;4.538;2022-09-09T01:55:32;13.70;99.90
15991;DHT22;8100;50.994;4.538;2022-09-09T01:58:27;13.80;99.90
15991;DHT22;8100;50.994;4.538;2022-09-09T02:01:24;13.00;99.90
15991;DHT22;8100;50.994;4.538;2022-09-09T02:04:24;13.00;99.90
15991;DHT22;8100;50.994;4.538;2022-09-09T02:07:23;13.70;99.90
15991;DHT22;8100;50.994;4.538;2022-09-09T02:10:18;14.20;99.90
15991;DHT22;8100;50.994;4.538;2022-09-09T02:13:10;13.00;99.90
15991;DHT22;8100;50.994;4.538;2022-09-09T02:16:00;14.30;99.90
15991;DHT22;8100;50.994;4.538;2022-09-09T02:18:53;13.00;99.90
15991;DHT22;8100;50.994;4.538;2022-09-09T02:21:44;13.10;99.90
15991;DHT22;8100;50.994;4.538;2022-09-09T02:24:35;13.80;99.90
15991;DHT22;8100;50.994;4.538;2022-09-09T02:27:23;14.20;99.90
15991;DHT22;8100;50.994;4.538;2022-09-09T02:30:11;14.00;99.90
15991;DHT22;8100;50.994;4.538;2022-09-09T02:33:02;13.30;99.90
15991;DHT22;8100;50.994;4.538;2022-09-09T02:35:52;13.10;99.90
15991;DHT22;8100;50.994;4.538;2022-09-09T02:38:45;13.80;99.90
15991;DHT22;8100;50.994;4.538;2022-09-09T02:41:38;13.00;99.90
15991;DHT22;8100;50.994;4.538;2022-09-09T02:44:26;14.10;99.90
15991;DHT22;8100;50.994;4.538;2022-09-09T02:47:25;14.30;99.90
15991;DHT22;8100;50.994;4.538;2022-09-09T02:50:17;13.90;99.90
15991;DHT22;8100;50.994;4.538;2022-09-09T02:53:12;14.40;99.90
15991;DHT22;8100;50.994;4.538;2022-09-09T02:56:05;14.20;99.90
15991;DHT22;8100;50.994;4.538;2022-09-09T02:58:55;13.50;99.90
15991;DHT22;8100;50.994;4.538;2022-09-09T03:01:42;14.40;99.90
15991;DHT22;8100;50.994;4.538;2022-09-09T03:04:30;14.30;99.90
15991;DHT22;8100;50.994;4.538;2022-09-09T03:07:17;14.40;99.90
15991;DHT22;8100;50.994;4.538;2022-09-09T03:10:06;14.30;99.90
15991;DHT22;8100;50.994;4.538;2022-09-09T03:12:56;14.40;99.90
15991;DHT22;8100;50.994;4.538;2022-09-09T03:15:43;13.50;99.90
15991;DHT22;8100;50.994;4.538;2022-09-09T03:18:31;14.00;99.90
15991;DHT22;8100;50.994;4.538;2022-09-09T03:21:18;14.10;99.90
15991;DHT22;8100;50.994;4.538;2022-09-09T03:24:05;14.30;99.90
15991;DHT22;8100;50.994;4.538;2022-09-09T03:26:54;14.30;99.90
15991;DHT22;8100;50.994;4.538;2022-09-09T03:29:41;13.40;99.90
15991;DHT22;8100;50.994;4.538;2022-09-09T03:32:28;13.30;99.90
15991;DHT22;8100;50.994;4.538;2022-09-09T03:35:17;13.50;99.90
15991;DHT22;8100;50.994;4.538;2022-09-09T03:38:04;14.10;99.90
15991;DHT22;8100;50.994;4.538;2022-09-09T03:40:53;14.50;99.90
15991;DHT22;8100;50.994;4.538;2022-09-09T03:43:42;14.10;99.90
15991;DHT22;8100;50.994;4.538;2022-09-09T03:46:30;13.60;99.90
15991;DHT22;8100;50.994;4.538;2022-09-09T03:49:17;14.10;99.90
15991;DHT22;8100;50.994;4.538;2022-09-09T03:52:06;13.30;99.90
15991;DHT22;8100;50.994;4.538;2022-09-09T03:54:53;13.80;99.90
15991;DHT22;8100;50.994;4.538;2022-09-09T03:57:41;14.30;99.90
15991;DHT22;8100;50.994;4.538;2022-09-09T04:00:29;14.00;99.90
15991;DHT22;8100;50.994;4.538;2022-09-09T04:03:17;14.00;99.90
15991;DHT22;8100;50.994;4.538;2022-09-09T04:06:05;14.00;99.90
15991;DHT22;8100;50.994;4.538;2022-09-09T04:08:53;14.30;99.90
15991;DHT22;8100;50.994;4.538;2022-09-09T04:11:41;13.30;99.90
15991;DHT22;8100;50.994;4.538;2022-09-09T04:14:28;13.30;99.90
15991;DHT22;8100;50.994;4.538;2022-09-09T04:17:16;14.30;99.90
15991;DHT22;8100;50.994;4.538;2022-09-09T04:20:04;14.20;99.90
15991;DHT22;8100;50.994;4.538;2022-09-09T04:22:53;14.30;99.90
15991;DHT22;8100;50.994;4.538;2022-09-09T04:25:44;13.50;99.90
15991;DHT22;8100;50.994;4.538;2022-09-09T04:28:34;13.90;99.90
15991;DHT22;8100;50.994;4.538;2022-09-09T04:31:22;14.30;99.90
15991;DHT22;8100;50.994;4.538;2022-09-09T04:34:11;13.70;99.90
15991;DHT22;8100;50.994;4.538;2022-09-09T04:36:58;13.60;99.90
15991;DHT22;8100;50.994;4.538;2022-09-09T04:39:46;13.30;99.90
15991;DHT22;8100;50.994;4.538;2022-09-09T04:42:35;13.90;99.90
15991;DHT22;8100;50.994;4.538;2022-09-09T04:45:22;14.10;99.90
15991;DHT22;8100;50.994;4.538;2022-09-09T04:48:10;14.30;99.90
15991;DHT22;8100;50.994;4.538;2022-09-09T04:51:00;14.30;99.90
15991;DHT22;8100;50.994;4.538;2022-09-09T04:53:48;13.10;99.90
15991;DHT22;8100;50.994;4.538;2022-09-09T04:56:36;13.10;99.90
15991;DHT22;8100;50.994;4.538;2022-09-09T04:59:23;13.90;99.90
15991;DHT22;8100;50.994;4.538;2022-09-09T05:02:11;13.90;99.90
15991;DHT22;8100;50.994;4.538;2022-09-09T05:04:58;13.20;99.90
15991;DHT22;8100;50.994;4.538;2022-09-09T05:07:47;13.80;99.90
15991;DHT22;8100;50.994;4.538;2022-09-09T05:10:37;13.90;99.90
15991;DHT22;8100;50.994;4.538;2022-09-09T05:13:25;13.60;99.90
15991;DHT22;8100;50.994;4.538;2022-09-09T05:16:13;13.60;99.90
15991;DHT22;8100;50.994;4.538;2022-09-09T05:19:01;14.00;99.90
15991;DHT22;8100;50.994;4.538;2022-09-09T05:21:49;14.00;99.90
15991;DHT22;8100;50.994;4.538;2022-09-09T05:24:38;13.30;99.90
15991;DHT22;8100;50.994;4.538;2022-09-09T05:27:25;13.50;99.90
15991;DHT22;8100;50.994;4.538;2022-09-09T05:30:13;14.40;99.90
15991;DHT22;8100;50.994;4.538;2022-09-09T05:33:00;14.10;99.90
15991;DHT22;8100;50.994;4.538;2022-09-09T05:35:47;13.70;99.90
15991;DHT22;8100;50.994;4.538;2022-09-09T05:38:35;13.90;99.90
15991;DHT22;8100;50.994;4.538;2022-09-09T05:41:25;13.80;99.90
15991;DHT22;8100;50.994;4.538;2022-09-09T05:44:12;13.80;99.90
15991;DHT22;8100;50.994;4.538;2022-09-09T05:46:59;14.80;99.90
15991;DHT22;8100;50.994;4.538;2022-09-09T05:49:46;15.10;99.90
15991;DHT22;8100;50.994;4.538;2022-09-09T05:52:35;15.10;99.90
15991;DHT22;8100;50.994;4.538;2022-09-09T05:55:22;15.10;99.90
15991;DHT22;8100;50.994;4.538;2022-09-09T05:58:12;14.20;99.90
15991;DHT22;8100;50.994;4.538;2022-09-09T06:01:02;15.10;99.90
15991;DHT22;8100;50.994;4.538;2022-09-09T06:03:50;14.00;99.90
15991;DHT22;8100;50.994;4.538;2022-09-09T06:06:38;14.20;99.90
15991;DHT22;8100;50.994;4.538;2022-09-09T06:09:27;13.80;99.90
15991;DHT22;8100;50.994;4.538;2022-09-09T06:12:16;13.90;99.90
15991;DHT22;8100;50.994;4.538;2022-09-09T06:15:05;15.20;99.90
15991;DHT22;8100;50.994;4.538;2022-09-09T06:17:54;14.00;99.90
15991;DHT22;8100;50.994;4.538;2022-09-09T06:20:42;14.90;99.90
15991;DHT22;8100;50.994;4.538;2022-09-09T06:23:29;14.30;99.90
15991;DHT22;8100;50.994;4.538;2022-09-09T06:26:18;15.20;99.90
15991;DHT22;8100;50.994;4.538;2022-09-09T06:29:05;14.80;99.90
15991;DHT22;8100;50.994;4.538;2022-09-09T06:31:55;14.80;99.90
15991;DHT22;8100;50.994;4.538;2022-09-09T06:34:43;15.30;99.90
15991;DHT22;8100;50.994;4.538;2022-09-09T06:37:31;14.40;99.90
15991;DHT22;8100;50.994;4.538;2022-09-09T06:40:18;14.80;99.90
15991;DHT22;8100;50.994;4.538;2022-09-09T06:43:05;14.80;99.90
15991;DHT22;8100;50.994;4.538;2022-09-09T06:45:54;14.80;99.90
15991;DHT22;8100;50.994;4.538;2022-09-09T06:48:43;14.80;99.90
15991;DHT22;8100;50.994;4.538;2022-09-09T06:51:33;15.20;99.90
15991;DHT22;8100;50.994;4.538;2022-09-09T06:54:21;15.50;99.90
15991;DHT22;8100;50.994;4.538;2022-09-09T06:57:09;14.70;99.90
15991;DHT22;8100;50.994;4.538;2022-09-09T06:59:56;14.90;99.90
15991;DHT22;8100;50.994;4.538;2022-09-09T07:02:44;15.20;99.90
15991;DHT22;8100;50.994;4.538;2022-09-09T07:05:32;15.40;99.90
15991;DHT22;8100;50.994;4.538;2022-09-09T07:08:20;15.30;99.90
15991;DHT22;8100;50.994;4.538;2022-09-09T07:11:08;15.30;99.90
15991;DHT22;8100;50.994;4.538;2022-09-09T07:13:57;15.30;99.90
15991;DHT22;8100;50.994;4.538;2022-09-09T07:16:45;15.00;99.90
15991;DHT22;8100;50.994;4.538;2022-09-09T07:19:32;15.10;99.90
15991;DHT22;8100;50.994;4.538;2022-09-09T07:22:21;15.60;99.90
15991;DHT22;8100;50.994;4.538;2022-09-09T07:25:09;15.70;99.90
15991;DHT22;8100;50.994;4.538;2022-09-09T07:27:56;15.50;99.90
15991;DHT22;8100;50.994;4.538;2022-09-09T07:30:43;15.40;99.90
15991;DHT22;8100;50.994;4.538;2022-09-09T07:33:31;15.50;99.90
15991;DHT22;8100;50.994;4.538;2022-09-09T07:36:20;15.70;99.90
15991;DHT22;8100;50.994;4.538;2022-09-09T07:39:11;15.80;99.90
15991;DHT22;8100;50.994;4.538;2022-09-09T07:41:59;15.60;99.90
15991;DHT22;8100;50.994;4.538;2022-09-09T07:44:46;15.70;99.90
15991;DHT22;8100;50.994;4.538;2022-09-09T07:47:34;15.90;99.90
15991;DHT22;8100;50.994;4.538;2022-09-09T07:50:21;15.90;99.90
15991;DHT22;8100;50.994;4.538;2022-09-09T07:53:09;15.70;99.90
15991;DHT22;8100;50.994;4.538;2022-09-09T07:56:04;15.70;99.90
15991;DHT22;8100;50.994;4.538;2022-09-09T07:58:52;15.50;99.90
15991;DHT22;8100;50.994;4.538;2022-09-09T08:01:41;15.50;99.90
15991;DHT22;8100;50.994;4.538;2022-09-09T08:04:29;15.60;99.90
15991;DHT22;8100;50.994;4.538;2022-09-09T08:07:16;15.70;99.90
15991;DHT22;8100;50.994;4.538;2022-09-09T08:10:04;16.00;99.90
15991;DHT22;8100;50.994;4.538;2022-09-09T08:12:53;16.20;99.90
15991;DHT22;8100;50.994;4.538;2022-09-09T08:15:41;16.50;99.90
15991;DHT22;8100;50.994;4.538;2022-09-09T08:18:30;16.60;99.90
15991;DHT22;8100;50.994;4.538;2022-09-09T08:21:20;16.80;99.90
15991;DHT22;8100;50.994;4.538;2022-09-09T08:24:09;17.00;99.90
15991;DHT22;8100;50.994;4.538;2022-09-09T08:26:57;17.10;99.90
15991;DHT22;8100;50.994;4.538;2022-09-09T08:29:45;17.00;99.90
15991;DHT22;8100;50.994;4.538;2022-09-09T08:32:32;16.80;99.90
15991;DHT22;8100;50.994;4.538;2022-09-09T08:35:21;16.70;99.90
15991;DHT22;8100;50.994;4.538;2022-09-09T08:38:08;16.70;99.90
15991;DHT22;8100;50.994;4.538;2022-09-09T08:41:00;16.60;99.90
15991;DHT22;8100;50.994;4.538;2022-09-09T08:43:50;16.60;99.90
15991;DHT22;8100;50.994;4.538;2022-09-09T08:46:46;16.60;99.90
15991;DHT22;8100;50.994;4.538;2022-09-09T08:49:45;16.50;99.90
15991;DHT22;8100;50.994;4.538;2022-09-09T08:52:19;16.60;99.90
15991;DHT22;8100;50.994;4.538;2022-09-09T08:54:46;16.50;99.90
15991;DHT22;8100;50.994;4.538;2022-09-09T08:57:19;16.60;99.90
15991;DHT22;8100;50.994;4.538;2022-09-09T08:59:46;16.70;99.90
15991;DHT22;8100;50.994;4.538;2022-09-09T09:02:19;16.60;99.90
15991;DHT22;8100;50.994;4.538;2022-09-09T09:04:56;16.60;99.90
15991;DHT22;8100;50.994;4.538;2022-09-09T09:07:34;16.30;99.90
15991;DHT22;8100;50.994;4.538;2022-09-09T09:10:10;16.10;99.90
15991;DHT22;8100;50.994;4.538;2022-09-09T09:12:42;16.00;99.90
15991;DHT22;8100;50.994;4.538;2022-09-09T09:15:16;15.90;99.90
15991;DHT22;8100;50.994;4.538;2022-09-09T09:17:46;16.00;99.90
15991;DHT22;8100;50.994;4.538;2022-09-09T09:20:15;16.00;99.90
15991;DHT22;8100;50.994;4.538;2022-09-09T09:22:48;15.90;99.90
15991;DHT22;8100;50.994;4.538;2022-09-09T09:25:18;15.90;99.90
15991;DHT22;8100;50.994;4.538;2022-09-09T09:27:52;15.90;99.90
15991;DHT22;8100;50.994;4.538;2022-09-09T09:30:23;15.90;99.90
15991;DHT22;8100;50.994;4.538;2022-09-09T09:32:55;16.00;99.90
15991;DHT22;8100;50.994;4.538;2022-09-09T09:35:22;16.10;99.90
15991;DHT22;8100;50.994;4.538;2022-09-09T09:37:50;16.10;99.90
15991;DHT22;8100;50.994;4.538;2022-09-09T09:40:18;16.10;99.90
15991;DHT22;8100;50.994;4.538;2022-09-09T09:42:51;16.20;99.90
15991;DHT22;8100;50.994;4.538;2022-09-09T09:45:26;16.20;99.90
15991;DHT22;8100;50.994;4.538;2022-09-09T09:48:00;16.30;99.90
15991;DHT22;8100;50.994;4.538;2022-09-09T09:50:28;16.30;99.90
15991;DHT22;8100;50.994;4.538;2022-09-09T09:52:57;16.40;99.90
15991;DHT22;8100;50.994;4.538;2022-09-09T09:55:25;16.30;99.90
15991;DHT22;8100;50.994;4.538;2022-09-09T09:57:53;16.30;99.90
15991;DHT22;8100;50.994;4.538;2022-09-09T10:00:21;16.40;99.90
15991;DHT22;8100;50.994;4.538;2022-09-09T10:02:49;16.60;99.90
15991;DHT22;8100;50.994;4.538;2022-09-09T10:05:23;16.60;99.90
15991;DHT22;8100;50.994;4.538;2022-09-09T10:08:01;16.70;99.90
15991;DHT22;8100;50.994;4.538;2022-09-09T10:10:40;16.60;99.90
15991;DHT22;8100;50.994;4.538;2022-09-09T10:13:13;16.70;99.90
15991;DHT22;8100;50.994;4.538;2022-09-09T10:15:50;16.60;99.90
15991;DHT22;8100;50.994;4.538;2022-09-09T10:18:39;16.70;99.90
15991;DHT22;8100;50.994;4.538;2022-09-09T10:21:20;16.60;99.90
15991;DHT22;8100;50.994;4.538;2022-09-09T10:26:57;16.60;99.90
15991;DHT22;8100;50.994;4.538;2022-09-09T10:29:40;16.60;99.90
15991;DHT22;8100;50.994;4.538;2022-09-09T10:32:33;16.50;99.90
15991;DHT22;8100;50.994;4.538;2022-09-09T10:35:09;16.60;99.90
15991;DHT22;8100;50.994;4.538;2022-09-09T10:37:48;16.80;99.90
15991;DHT22;8100;50.994;4.538;2022-09-09T10:40:26;17.10;99.90
15991;DHT22;8100;50.994;4.538;2022-09-09T10:43:02;17.10;99.90
15991;DHT22;8100;50.994;4.538;2022-09-09T10:45:39;17.20;99.90
15991;DHT22;8100;50.994;4.538;2022-09-09T10:48:30;17.40;99.90
15991;DHT22;8100;50.994;4.538;2022-09-09T10:51:08;17.40;99.90
15991;DHT22;8100;50.994;4.538;2022-09-09T10:53:45;17.40;99.90
15991;DHT22;8100;50.994;4.538;2022-09-09T10:56:16;17.30;99.90
15991;DHT22;8100;50.994;4.538;2022-09-09T10:58:47;17.30;99.90
15991;DHT22;8100;50.994;4.538;2022-09-09T11:01:20;17.60;99.90
15991;DHT22;8100;50.994;4.538;2022-09-09T11:03:53;17.90;99.90
15991;DHT22;8100;50.994;4.538;2022-09-09T11:06:26;18.00;99.90
15991;DHT22;8100;50.994;4.538;2022-09-09T11:08:58;18.10;99.90
15991;DHT22;8100;50.994;4.538;2022-09-09T11:11:31;18.10;99.90
15991;DHT22;8100;50.994;4.538;2022-09-09T11:14:02;18.10;99.90
15991;DHT22;8100;50.994;4.538;2022-09-09T11:16:35;17.90;99.90
15991;DHT22;8100;50.994;4.538;2022-09-09T11:19:14;17.80;99.90
15991;DHT22;8100;50.994;4.538;2022-09-09T11:21:46;17.80;99.90
15991;DHT22;8100;50.994;4.538;2022-09-09T11:24:19;17.90;99.90
15991;DHT22;8100;50.994;4.538;2022-09-09T11:26:51;17.80;99.90
15991;DHT22;8100;50.994;4.538;2022-09-09T11:29:36;17.80;99.90
15991;DHT22;8100;50.994;4.538;2022-09-09T11:32:22;17.80;99.90
15991;DHT22;8100;50.994;4.538;2022-09-09T11:34:54;18.00;99.90
15991;DHT22;8100;50.994;4.538;2022-09-09T11:37:53;18.00;99.90
15991;DHT22;8100;50.994;4.538;2022-09-09T11:40:26;18.00;99.90
15991;DHT22;8100;50.994;4.538;2022-09-09T11:43:08;18.30;99.90
15991;DHT22;8100;50.994;4.538;2022-09-09T11:45:38;18.50;99.90
15991;DHT22;8100;50.994;4.538;2022-09-09T11:48:22;18.50;99.90
15991;DHT22;8100;50.994;4.538;2022-09-09T11:50:57;18.60;99.90
15991;DHT22;8100;50.994;4.538;2022-09-09T11:53:26;18.60;99.90
15991;DHT22;8100;50.994;4.538;2022-09-09T11:56:06;18.60;99.90
15991;DHT22;8100;50.994;4.538;2022-09-09T11:58:42;18.50;99.90
15991;DHT22;8100;50.994;4.538;2022-09-09T12:04:16;18.30;99.90
15991;DHT22;8100;50.994;4.538;2022-09-09T12:06:45;18.30;99.90
15991;DHT22;8100;50.994;4.538;2022-09-09T12:09:20;18.40;99.90
15991;DHT22;8100;50.994;4.538;2022-09-09T12:11:51;18.40;99.90
15991;DHT22;8100;50.994;4.538;2022-09-09T12:14:23;18.40;99.90
15991;DHT22;8100;50.994;4.538;2022-09-09T12:17:09;18.60;99.90
15991;DHT22;8100;50.994;4.538;2022-09-09T12:19:36;18.80;99.90
15991;DHT22;8100;50.994;4.538;2022-09-09T12:22:07;18.90;99.90
15991;DHT22;8100;50.994;4.538;2022-09-09T12:24:43;18.80;99.90
15991;DHT22;8100;50.994;4.538;2022-09-09T12:27:19;18.60;99.90
15991;DHT22;8100;50.994;4.538;2022-09-09T12:29:54;18.70;99.90
15991;DHT22;8100;50.994;4.538;2022-09-09T12:32:25;18.80;99.90
15991;DHT22;8100;50.994;4.538;2022-09-09T12:34:54;18.90;99.90
15991;DHT22;8100;50.994;4.538;2022-09-09T12:37:28;18.90;99.90
15991;DHT22;8100;50.994;4.538;2022-09-09T12:39:57;18.70;99.90
15991;DHT22;8100;50.994;4.538;2022-09-09T12:42:26;18.80;99.90
15991;DHT22;8100;50.994;4.538;2022-09-09T12:44:55;19.00;99.90
15991;DHT22;8100;50.994;4.538;2022-09-09T12:47:29;19.10;99.90
15991;DHT22;8100;50.994;4.538;2022-09-09T12:49:57;19.00;99.90
15991;DHT22;8100;50.994;4.538;2022-09-09T12:52:29;19.00;99.90
15991;DHT22;8100;50.994;4.538;2022-09-09T12:54:59;19.10;99.90
15991;DHT22;8100;50.994;4.538;2022-09-09T12:57:34;19.20;99.90
15991;DHT22;8100;50.994;4.538;2022-09-09T13:00:14;19.20;99.90
15991;DHT22;8100;50.994;4.538;2022-09-09T13:02:50;19.20;99.90
15991;DHT22;8100;50.994;4.538;2022-09-09T13:05:21;19.50;99.90
15991;DHT22;8100;50.994;4.538;2022-09-09T13:07:49;19.60;99.90
15991;DHT22;8100;50.994;4.538;2022-09-09T13:10:24;19.50;99.90
15991;DHT22;8100;50.994;4.538;2022-09-09T13:12:54;19.70;99.90
15991;DHT22;8100;50.994;4.538;2022-09-09T13:15:23;19.80;99.90
15991;DHT22;8100;50.994;4.538;2022-09-09T13:17:57;20.00;99.90
15991;DHT22;8100;50.994;4.538;2022-09-09T13:20:26;20.20;99.90
15991;DHT22;8100;50.994;4.538;2022-09-09T13:22:55;20.50;99.90
15991;DHT22;8100;50.994;4.538;2022-09-09T13:25:25;20.30;99.90
15991;DHT22;8100;50.994;4.538;2022-09-09T13:27:56;20.20;99.90
15991;DHT22;8100;50.994;4.538;2022-09-09T13:30:25;20.30;99.90
15991;DHT22;8100;50.994;4.538;2022-09-09T13:33:20;20.10;99.90
15991;DHT22;8100;50.994;4.538;2022-09-09T13:35:50;19.90;99.90
15991;DHT22;8100;50.994;4.538;2022-09-09T13:38:18;19.80;99.90
15991;DHT22;8100;50.994;4.538;2022-09-09T13:40:56;19.60;99.90
15991;DHT22;8100;50.994;4.538;2022-09-09T13:43:27;19.40;99.90
15991;DHT22;8100;50.994;4.538;2022-09-09T13:45:55;19.60;99.90
15991;DHT22;8100;50.994;4.538;2022-09-09T13:48:23;19.70;99.90
15991;DHT22;8100;50.994;4.538;2022-09-09T13:50:57;19.60;99.90
15991;DHT22;8100;50.994;4.538;2022-09-09T13:53:25;19.60;99.90
15991;DHT22;8100;50.994;4.538;2022-09-09T13:55:52;19.60;99.90
15991;DHT22;8100;50.994;4.538;2022-09-09T13:58:19;19.50;99.90
15991;DHT22;8100;50.994;4.538;2022-09-09T14:00:49;19.50;99.90
15991;DHT22;8100;50.994;4.538;2022-09-09T14:03:16;19.80;99.90
15991;DHT22;8100;50.994;4.538;2022-09-09T14:05:44;20.10;99.90
15991;DHT22;8100;50.994;4.538;2022-09-09T14:08:16;20.10;99.90
15991;DHT22;8100;50.994;4.538;2022-09-09T14:10:46;19.80;99.90
15991;DHT22;8100;50.994;4.538;2022-09-09T14:13:13;19.70;99.90
15991;DHT22;8100;50.994;4.538;2022-09-09T14:15:41;19.60;99.90
15991;DHT22;8100;50.994;4.538;2022-09-09T14:18:11;19.40;99.90
15991;DHT22;8100;50.994;4.538;2022-09-09T14:20:39;19.20;99.90
15991;DHT22;8100;50.994;4.538;2022-09-09T14:23:10;19.10;99.90
15991;DHT22;8100;50.994;4.538;2022-09-09T14:25:40;19.20;99.90
15991;DHT22;8100;50.994;4.538;2022-09-09T14:28:09;19.30;99.90
15991;DHT22;8100;50.994;4.538;2022-09-09T14:30:37;19.30;99.90
15991;DHT22;8100;50.994;4.538;2022-09-09T14:33:05;19.50;99.90
15991;DHT22;8100;50.994;4.538;2022-09-09T14:35:34;20.20;99.90
15991;DHT22;8100;50.994;4.538;2022-09-09T14:38:02;21.00;99.90
15991;DHT22;8100;50.994;4.538;2022-09-09T14:40:29;20.70;99.90
15991;DHT22;8100;50.994;4.538;2022-09-09T14:42:56;20.50;99.90
15991;DHT22;8100;50.994;4.538;2022-09-09T14:45:24;20.80;99.90
15991;DHT22;8100;50.994;4.538;2022-09-09T14:47:52;20.40;99.90
15991;DHT22;8100;50.994;4.538;2022-09-09T14:50:20;20.00;99.90
15991;DHT22;8100;50.994;4.538;2022-09-09T14:52:49;19.80;99.90
15991;DHT22;8100;50.994;4.538;2022-09-09T14:55:16;19.80;99.90
15991;DHT22;8100;50.994;4.538;2022-09-09T14:57:43;20.00;99.90
15991;DHT22;8100;50.994;4.538;2022-09-09T15:00:11;20.00;99.90
15991;DHT22;8100;50.994;4.538;2022-09-09T15:02:38;20.00;99.90
15991;DHT22;8100;50.994;4.538;2022-09-09T15:05:06;20.00;99.90
15991;DHT22;8100;50.994;4.538;2022-09-09T15:07:33;20.00;99.90
15991;DHT22;8100;50.994;4.538;2022-09-09T15:10:03;20.80;99.90
15991;DHT22;8100;50.994;4.538;2022-09-09T15:12:30;21.40;99.90
15991;DHT22;8100;50.994;4.538;2022-09-09T15:15:19;21.60;99.90
15991;DHT22;8100;50.994;4.538;2022-09-09T15:18:04;21.00;99.90
15991;DHT22;8100;50.994;4.538;2022-09-09T15:20:50;20.60;99.90
15991;DHT22;8100;50.994;4.538;2022-09-09T15:23:36;20.10;99.90
15991;DHT22;8100;50.994;4.538;2022-09-09T15:26:23;20.20;99.90
15991;DHT22;8100;50.994;4.538;2022-09-09T15:29:13;21.00;99.90
15991;DHT22;8100;50.994;4.538;2022-09-09T15:32:02;21.40;99.90
15991;DHT22;8100;50.994;4.538;2022-09-09T15:34:49;21.00;99.90
15991;DHT22;8100;50.994;4.538;2022-09-09T15:37:37;20.80;99.90
15991;DHT22;8100;50.994;4.538;2022-09-09T15:40:28;20.80;99.90
15991;DHT22;8100;50.994;4.538;2022-09-09T15:43:19;20.70;99.90
15991;DHT22;8100;50.994;4.538;2022-09-09T15:46:26;20.20;99.90
15991;DHT22;8100;50.994;4.538;2022-09-09T15:49:13;20.00;99.90
15991;DHT22;8100;50.994;4.538;2022-09-09T15:52:03;19.90;99.90
15991;DHT22;8100;50.994;4.538;2022-09-09T15:54:48;19.60;99.90
15991;DHT22;8100;50.994;4.538;2022-09-09T15:57:34;19.60;99.90
15991;DHT22;8100;50.994;4.538;2022-09-09T16:00:03;19.50;99.90
15991;DHT22;8100;50.994;4.538;2022-09-09T16:02:37;19.50;99.90
15991;DHT22;8100;50.994;4.538;2022-09-09T16:05:22;19.30;99.90
15991;DHT22;8100;50.994;4.538;2022-09-09T16:08:10;19.00;99.90
15991;DHT22;8100;50.994;4.538;2022-09-09T16:10:55;18.80;99.90
15991;DHT22;8100;50.994;4.538;2022-09-09T16:13:42;18.60;99.90
15991;DHT22;8100;50.994;4.538;2022-09-09T16:16:30;18.50;99.90
15991;DHT22;8100;50.994;4.538;2022-09-09T16:19:16;18.00;99.90
15991;DHT22;8100;50.994;4.538;2022-09-09T16:22:03;17.60;99.90
15991;DHT22;8100;50.994;4.538;2022-09-09T16:24:52;17.10;99.90
15991;DHT22;8100;50.994;4.538;2022-09-09T16:27:37;17.30;99.90
15991;DHT22;8100;50.994;4.538;2022-09-09T16:30:23;17.00;99.90
15991;DHT22;8100;50.994;4.538;2022-09-09T16:33:10;17.40;99.90
15991;DHT22;8100;50.994;4.538;2022-09-09T16:36:05;17.30;99.90
15991;DHT22;8100;50.994;4.538;2022-09-09T16:38:52;17.40;99.90
15991;DHT22;8100;50.994;4.538;2022-09-09T16:41:41;17.30;99.90
15991;DHT22;8100;50.994;4.538;2022-09-09T16:44:13;17.60;99.90
15991;DHT22;8100;50.994;4.538;2022-09-09T16:46:59;17.40;99.90
15991;DHT22;8100;50.994;4.538;2022-09-09T16:49:46;17.50;99.90
15991;DHT22;8100;50.994;4.538;2022-09-09T16:52:34;17.50;99.90
15991;DHT22;8100;50.994;4.538;2022-09-09T16:55:23;17.60;99.90
15991;DHT22;8100;50.994;4.538;2022-09-09T16:58:11;17.50;99.90
15991;DHT22;8100;50.994;4.538;2022-09-09T17:00:59;17.60;99.90
15991;DHT22;8100;50.994;4.538;2022-09-09T17:03:51;17.60;99.90
15991;DHT22;8100;50.994;4.538;2022-09-09T17:06:40;17.70;99.90
15991;DHT22;8100;50.994;4.538;2022-09-09T17:09:27;17.70;99.90
15991;DHT22;8100;50.994;4.538;2022-09-09T17:12:17;17.70;99.90
15991;DHT22;8100;50.994;4.538;2022-09-09T17:15:05;17.80;99.90
15991;DHT22;8100;50.994;4.538;2022-09-09T17:17:52;17.90;99.90
15991;DHT22;8100;50.994;4.538;2022-09-09T17:20:41;17.90;99.90
15991;DHT22;8100;50.994;4.538;2022-09-09T17:23:31;18.00;99.90
15991;DHT22;8100;50.994;4.538;2022-09-09T17:26:20;17.90;99.90
15991;DHT22;8100;50.994;4.538;2022-09-09T17:29:09;17.80;99.90